Time;durP1;ratioP1;P1;durP2;ratioP2;P2;SDS_P1;SDS_P2;PMS_P1;PMS_P2;Temp;Humidity;BMP_temperature;BMP_pressure;BME280_temperature;BME280_humidity;BME280_pressure;Samples;Min_cycle;Max_cycle;Signal;HPM_P1;HPM_P2
2022/10/21 00:03:31;;;;;;;;;;;;;;;12.04;91.77344;100805.8;;;;-75
2022/10/21 00:08:31;;;;;;;;;;;;;;;12.04;91.37695;100807.3;;;;-73
2022/10/21 00:13:32;;;;;;;;;;;;;;;12.06;91.61035;100820.2;;;;-75
2022/10/21 00:13:42;;;;;;;14.5;7.9;;;;;;;;;;;;;-75
2022/10/21 00:18:31;;;;;;;;;;;;;;;12.07;91.94629;100825.3;;;;-76
2022/10/21 00:23:31;;;;;;;;;;;;;;;12.07;91.71191;100810.9;;;;-75
2022/10/21 00:28:31;;;;;;;;;;;;;;;12.05;92.13086;100805.8;;;;-75
2022/10/21 00:33:31;;;;;;;;;;;;;;;12.01;91.33594;100805.1;;;;-76
2022/10/21 00:38:34;;;;;;;;;;;;;;;11.99;90.30273;100810.6;;;;-74
2022/10/21 00:43:33;;;;;;;;;;;;;;;11.98;91.26172;100814.1;;;;-74
2022/10/21 00:43:54;;;;;;;15.2;7.8;;;;;;;;;;;;;-74
2022/10/21 00:48:34;;;;;;;;;;;;;;;11.97;91.40527;100809;;;;-74
2022/10/21 00:53:31;;;;;;;;;;;;;;;11.95;90.77148;100811.1;;;;-74
2022/10/21 00:58:33;;;;;;;;;;;;;;;11.94;90.57031;100807.4;;;;-74
2022/10/21 01:03:31;;;;;;;;;;;;;;;11.96;90.70508;100811.8;;;;-74
2022/10/21 01:08:31;;;;;;;;;;;;;;;11.98;90.49805;100803.9;;;;-74
2022/10/21 01:13:40;;;;;;;;;;;;;;;12;90.4707;100807.6;;;;-74
2022/10/21 01:14:04;;;;;;;14.9;8.2;;;;;;;;;;;;;-74
2022/10/21 01:18:34;;;;;;;;;;;;;;;12.05;91.26758;100813.3;;;;-74
2022/10/21 01:23:57;;;;;;;;;;;;;;;12.06;91.12402;100812.6;;;;-74
2022/10/21 01:28:37;;;;;;;;;;;;;;;12.06;91.30273;100799.3;;;;-75
2022/10/21 01:33:41;;;;;;;;;;;;;;;12.08;91.81348;100794.3;;;;-75
2022/10/21 01:38:33;;;;;;;;;;;;;;;12.04;90.90039;100783.4;;;;-75
2022/10/21 01:43:38;;;;;;;;;;;;;;;12;90.60352;100773.5;;;;-74
2022/10/21 01:43:50;;;;;;;15.5;7.8;;;;;;;;;;;;;-74
2022/10/21 01:48:32;;;;;;;;;;;;;;;11.97;90.58691;100771;;;;-73
2022/10/21 01:53:32;;;;;;;;;;;;;;;11.95;90.22949;100756.4;;;;-75
2022/10/21 01:58:33;;;;;;;;;;;;;;;11.96;90.53906;100743.8;;;;-74
2022/10/21 02:03:33;;;;;;;;;;;;;;;11.98;90.89648;100736.8;;;;-74
2022/10/21 02:08:31;;;;;;;;;;;;;;;12;91.0127;100733.7;;;;-74
2022/10/21 02:13:34;;;;;;;;;;;;;;;12.02;90.75098;100726.3;;;;-74
2022/10/21 02:13:49;;;;;;;19;8.2;;;;;;;;;;;;;-74
2022/10/21 02:18:31;;;;;;;;;;;;;;;12.07;91.66797;100723.1;;;;-75
2022/10/21 02:23:35;;;;;;;;;;;;;;;12.1;92.0625;100724.6;;;;-76
2022/10/21 02:28:31;;;;;;;;;;;;;;;12.11;91.45605;100716.4;;;;-75
2022/10/21 02:33:38;;;;;;;;;;;;;;;12.14;91.52832;100715.3;;;;-75
2022/10/21 02:38:35;;;;;;;;;;;;;;;12.18;91.8457;100712.1;;;;-75
2022/10/21 02:43:36;;;;;;;;;;;;;;;12.18;91.49121;100706.4;;;;-75
2022/10/21 02:43:51;;;;;;;15.7;8;;;;;;;;;;;;;-75
2022/10/21 02:48:31;;;;;;;;;;;;;;;12.19;91.25391;100710.5;;;;-74
2022/10/21 02:53:32;;;;;;;;;;;;;;;12.21;91.03418;100709.3;;;;-75
2022/10/21 02:58:31;;;;;;;;;;;;;;;12.22;90.57129;100715;;;;-74
2022/10/21 03:03:31;;;;;;;;;;;;;;;12.22;90.67285;100703.7;;;;-75
2022/10/21 03:08:31;;;;;;;;;;;;;;;12.23;91.08203;100703.9;;;;-74
2022/10/21 03:13:31;;;;;;;;;;;;;;;12.23;89.99707;100712;;;;-75
2022/10/21 03:13:48;;;;;;;13.1;7.2;;;;;;;;;;;;;-75
2022/10/21 03:18:31;;;;;;;;;;;;;;;12.24;90.1543;100714.8;;;;-75
2022/10/21 03:23:31;;;;;;;;;;;;;;;12.3;91.01953;100710;;;;-76
2022/10/21 03:28:31;;;;;;;;;;;;;;;12.33;91.0498;100712.1;;;;-74
2022/10/21 03:33:31;;;;;;;;;;;;;;;12.34;91.03809;100703.7;;;;-78
2022/10/21 03:38:31;;;;;;;;;;;;;;;12.34;91.35059;100703.6;;;;-73
2022/10/21 03:43:31;;;;;;;;;;;;;;;12.35;91.54102;100698.7;;;;-74
2022/10/21 03:43:50;;;;;;;11.9;6.7;;;;;;;;;;;;;-75
2022/10/21 03:48:31;;;;;;;;;;;;;;;12.33;91.71191;100684.4;;;;-74
2022/10/21 03:53:31;;;;;;;;;;;;;;;12.33;92.20996;100681.2;;;;-74
2022/10/21 03:58:34;;;;;;;;;;;;;;;12.31;92.16211;100676.6;;;;-75
2022/10/21 04:03:31;;;;;;;;;;;;;;;12.32;92.51855;100666.9;;;;-74
2022/10/21 04:08:34;;;;;;;;;;;;;;;12.27;92.19922;100666.8;;;;-75
2022/10/21 04:13:31;;;;;;;;;;;;;;;12.23;91.94531;100660.8;;;;-74
2022/10/21 04:13:54;;;;;;;12;6.8;;;;;;;;;;;;;-75
2022/10/21 04:18:31;;;;;;;;;;;;;;;12.24;92.86621;100666.8;;;;-74
2022/10/21 04:23:31;;;;;;;;;;;;;;;12.19;92.44727;100663.6;;;;-74
2022/10/21 04:28:31;;;;;;;;;;;;;;;12.17;92.88574;100658.9;;;;-75
2022/10/21 04:33:31;;;;;;;;;;;;;;;12.11;92.00977;100656;;;;-75
2022/10/21 04:38:31;;;;;;;;;;;;;;;12.09;92.49023;100654.6;;;;-75
2022/10/21 04:43:31;;;;;;;;;;;;;;;12.06;92.61914;100646.5;;;;-75
2022/10/21 04:43:52;;;;;;;15.1;7.3;;;;;;;;;;;;;-72
2022/10/21 04:48:31;;;;;;;;;;;;;;;12.04;92.91211;100664;;;;-71
2022/10/21 04:53:31;;;;;;;;;;;;;;;12;92.59473;100672.1;;;;-72
2022/10/21 04:58:31;;;;;;;;;;;;;;;11.95;91.91113;100676.8;;;;-72
2022/10/21 05:03:33;;;;;;;;;;;;;;;11.93;92.2041;100673.3;;;;-71
2022/10/21 05:08:31;;;;;;;;;;;;;;;11.89;92.19824;100675;;;;-72
2022/10/21 05:13:32;;;;;;;;;;;;;;;11.87;92.24609;100671.3;;;;-73
2022/10/21 05:13:53;;;;;;;12.4;7.6;;;;;;;;;;;;;-72
2022/10/21 05:18:31;;;;;;;;;;;;;;;11.82;91.60547;100666.8;;;;-72
2022/10/21 05:23:31;;;;;;;;;;;;;;;11.79;90.91406;100668.4;;;;-70
2022/10/21 05:28:31;;;;;;;;;;;;;;;11.75;91.02832;100663.5;;;;-71
2022/10/21 05:33:31;;;;;;;;;;;;;;;11.72;91.90723;100670.8;;;;-71
2022/10/21 05:38:31;;;;;;;;;;;;;;;11.7;91.91309;100678.9;;;;-72
2022/10/21 05:43:31;;;;;;;;;;;;;;;11.69;92.18555;100681.5;;;;-72
2022/10/21 05:43:55;;;;;;;14;7.6;;;;;;;;;;;;;-72
2022/10/21 05:48:31;;;;;;;;;;;;;;;11.68;92.4502;100692.1;;;;-71
2022/10/21 05:53:31;;;;;;;;;;;;;;;11.64;91.96582;100685.8;;;;-72
2022/10/21 05:58:31;;;;;;;;;;;;;;;11.63;92.04102;100687.4;;;;-74
2022/10/21 06:03:33;;;;;;;;;;;;;;;11.59;91.33691;100680.5;;;;-72
2022/10/21 06:08:32;;;;;;;;;;;;;;;11.57;90.60352;100681.8;;;;-73
2022/10/21 06:13:33;;;;;;;;;;;;;;;11.55;91.31836;100693.6;;;;-72
2022/10/21 06:13:58;;;;;;;15;7.3;;;;;;;;;;;;;-73
2022/10/21 06:18:31;;;;;;;;;;;;;;;11.52;90.70508;100695.5;;;;-73
2022/10/21 06:23:31;;;;;;;;;;;;;;;11.51;90.90039;100686.8;;;;-71
2022/10/21 06:28:32;;;;;;;;;;;;;;;11.48;90.62891;100678.7;;;;-71
2022/10/21 06:33:32;;;;;;;;;;;;;;;11.48;90.30859;100672.5;;;;-72
2022/10/21 06:38:31;;;;;;;;;;;;;;;11.48;90.06543;100685.2;;;;-72
2022/10/21 06:43:31;;;;;;;;;;;;;;;11.48;90.03223;100683.4;;;;-72
2022/10/21 06:43:56;;;;;;;14.4;7.4;;;;;;;;;;;;;-71
2022/10/21 06:48:31;;;;;;;;;;;;;;;11.49;90.71973;100695.3;;;;-75
2022/10/21 06:53:31;;;;;;;;;;;;;;;11.49;90.13379;100703;;;;-73
2022/10/21 06:58:31;;;;;;;;;;;;;;;11.51;90.1709;100702.9;;;;-72
2022/10/21 07:03:31;;;;;;;;;;;;;;;11.54;89.18066;100701.9;;;;-73
2022/10/21 07:08:32;;;;;;;;;;;;;;;11.55;90.1582;100698;;;;-71
2022/10/21 07:13:31;;;;;;;;;;;;;;;11.58;89.72168;100699;;;;-72
2022/10/21 07:13:57;;;;;;;17;7;;;;;;;;;;;;;-72
2022/10/21 07:18:40;;;;;;;;;;;;;;;11.62;90.37012;100694.8;;;;-71
2022/10/21 07:23:31;;;;;;;;;;;;;;;11.65;90.10156;100693.1;;;;-71
2022/10/21 07:28:31;;;;;;;;;;;;;;;11.67;89.97168;100684.4;;;;-75
2022/10/21 07:33:30;;;;;;;;;;;;;;;11.71;91.27539;100689.6;;;;-75
2022/10/21 07:38:32;;;;;;;;;;;;;;;11.74;90.68164;100690;;;;-75
2022/10/21 07:43:30;;;;;;;;;;;;;;;11.77;90.82227;100692.8;;;;-75
2022/10/21 07:43:58;;;;;;;13.7;6.9;;;;;;;;;;;;;-75
2022/10/21 07:48:31;;;;;;;;;;;;;;;11.8;90.33008;100705.1;;;;-75
2022/10/21 07:53:33;;;;;;;;;;;;;;;11.85;90.83887;100722.6;;;;-75
2022/10/21 07:58:31;;;;;;;;;;;;;;;11.88;90.50195;100726.1;;;;-74
2022/10/21 08:03:31;;;;;;;;;;;;;;;11.95;91.42188;100749.8;;;;-74
2022/10/21 08:08:31;;;;;;;;;;;;;;;11.97;91.58105;100753.7;;;;-75
2022/10/21 08:13:31;;;;;;;;;;;;;;;11.99;91.55566;100743.2;;;;-75
2022/10/21 08:14:00;;;;;;;12.4;6.8;;;;;;;;;;;;;-75
2022/10/21 08:18:31;;;;;;;;;;;;;;;12.03;91.62695;100734.3;;;;-76
2022/10/21 08:23:31;;;;;;;;;;;;;;;12.08;91.87109;100736;;;;-75
2022/10/21 08:28:32;;;;;;;;;;;;;;;12.14;92.08203;100742;;;;-76
2022/10/21 08:33:32;;;;;;;;;;;;;;;12.19;91.7832;100743.3;;;;-76
2022/10/21 08:38:33;;;;;;;;;;;;;;;12.25;92.1709;100742;;;;-75
2022/10/21 08:43:36;;;;;;;;;;;;;;;12.3;91.69531;100741.9;;;;-77
2022/10/21 08:44:00;;;;;;;11.5;6.5;;;;;;;;;;;;;-75
2022/10/21 08:48:33;;;;;;;;;;;;;;;12.35;91.89453;100723;;;;-75
2022/10/21 08:53:34;;;;;;;;;;;;;;;12.41;92.16992;100723.1;;;;-76
2022/10/21 08:58:31;;;;;;;;;;;;;;;12.44;91.48145;100732.3;;;;-77
2022/10/21 09:03:36;;;;;;;;;;;;;;;12.5;91.90332;100730.8;;;;-75
2022/10/21 09:08:35;;;;;;;;;;;;;;;12.54;91.93262;100750.1;;;;-76
2022/10/21 09:13:36;;;;;;;;;;;;;;;12.59;91.7334;100738.2;;;;-75
2022/10/21 09:14:14;;;;;;;11.2;6.1;;;;;;;;;;;;;-76
2022/10/21 09:18:42;;;;;;;;;;;;;;;12.65;91.27051;100741;;;;-75
2022/10/21 09:23:40;;;;;;;;;;;;;;;12.72;91.54102;100732.7;;;;-74
2022/10/21 09:28:32;;;;;;;;;;;;;;;12.78;91.69434;100724.6;;;;-75
2022/10/21 09:33:33;;;;;;;;;;;;;;;12.85;91.73145;100729.3;;;;-75
2022/10/21 09:38:36;;;;;;;;;;;;;;;12.92;92.0127;100723.8;;;;-75
2022/10/21 09:43:30;;;;;;;;;;;;;;;12.98;91.52539;100730.5;;;;-76
2022/10/21 09:44:02;;;;;;;12.2;6.2;;;;;;;;;;;;;-75
2022/10/21 09:48:41;;;;;;;;;;;;;;;13.02;91.81152;100728;;;;-74
2022/10/21 09:53:34;;;;;;;;;;;;;;;13.06;91.88574;100717.9;;;;-74
2022/10/21 09:58:33;;;;;;;;;;;;;;;13.1;92.29492;100730.3;;;;-75
2022/10/21 10:03:40;;;;;;;;;;;;;;;13.16;91.64063;100736.8;;;;-76
2022/10/21 10:08:35;;;;;;;;;;;;;;;13.2;91.31738;100745.8;;;;-75
2022/10/21 10:13:31;;;;;;;;;;;;;;;13.27;91.47656;100740.6;;;;-75
2022/10/21 10:14:15;;;;;;;11.2;5.9;;;;;;;;;;;;;-76
2022/10/21 10:18:33;;;;;;;;;;;;;;;13.34;91.16992;100742.7;;;;-74
2022/10/21 10:23:30;;;;;;;;;;;;;;;13.45;91.58105;100744;;;;-75
2022/10/21 10:28:33;;;;;;;;;;;;;;;13.57;91.40527;100737;;;;-74
2022/10/21 10:33:32;;;;;;;;;;;;;;;13.71;91.19141;100730.1;;;;-74
2022/10/21 10:38:34;;;;;;;;;;;;;;;13.85;90.43945;100732.6;;;;-75
2022/10/21 10:43:32;;;;;;;;;;;;;;;13.96;91.47363;100737.2;;;;-75
2022/10/21 10:44:05;;;;;;;11.1;5.8;;;;;;;;;;;;;-76
2022/10/21 10:48:35;;;;;;;;;;;;;;;14.06;91.39648;100745.1;;;;-74
2022/10/21 10:53:40;;;;;;;;;;;;;;;14.18;91.6543;100738.2;;;;-75
2022/10/21 10:58:32;;;;;;;;;;;;;;;14.32;90.9375;100741.7;;;;-75
2022/10/21 11:03:35;;;;;;;;;;;;;;;14.46;91.23242;100737.4;;;;-74
2022/10/21 11:08:35;;;;;;;;;;;;;;;14.67;91.28711;100729;;;;-75
2022/10/21 11:13:33;;;;;;;;;;;;;;;14.91;91.25977;100727.5;;;;-75
2022/10/21 11:14:09;;;;;;;11.5;4.8;;;;;;;;;;;;;-75
2022/10/21 11:18:35;;;;;;;;;;;;;;;15.19;90.26953;100720.8;;;;-74
2022/10/21 11:23:42;;;;;;;;;;;;;;;15.42;90.23828;100718.9;;;;-74
2022/10/21 11:28:33;;;;;;;;;;;;;;;15.7;91.08594;100727.4;;;;-74
2022/10/21 11:33:37;;;;;;;;;;;;;;;15.89;90.34375;100726.9;;;;-74
2022/10/21 11:38:45;;;;;;;;;;;;;;;16.09;91.28906;100723.5;;;;-74
2022/10/21 11:43:38;;;;;;;;;;;;;;;16.11;88.81445;100713.7;;;;-75
2022/10/21 11:44:12;;;;;;;8.9;4.7;;;;;;;;;;;;;-75
2022/10/21 11:48:36;;;;;;;;;;;;;;;16.22;88.70215;100700.9;;;;-74
2022/10/21 11:53:41;;;;;;;;;;;;;;;16.43;88.64258;100700.8;;;;-75
2022/10/21 11:58:36;;;;;;;;;;;;;;;16.57;88.42383;100698.3;;;;-74
2022/10/21 12:03:42;;;;;;;;;;;;;;;16.63;88.7168;100705.3;;;;-76
2022/10/21 12:08:37;;;;;;;;;;;;;;;16.68;88.12109;100700.4;;;;-75
2022/10/21 12:13:32;;;;;;;;;;;;;;;16.79;87.29199;100692.9;;;;-76
2022/10/21 12:14:20;;;;;;;10.1;4.5;;;;;;;;;;;;;-75
2022/10/21 12:18:32;;;;;;;;;;;;;;;16.91;88.55859;100686.5;;;;-75
2022/10/21 12:23:32;;;;;;;;;;;;;;;17;87.36816;100695.6;;;;-75
2022/10/21 12:28:34;;;;;;;;;;;;;;;17.13;86.91113;100701;;;;-74
2022/10/21 12:33:37;;;;;;;;;;;;;;;17.21;86.4209;100710.3;;;;-74
2022/10/21 12:38:43;;;;;;;;;;;;;;;17.33;86.47949;100711.3;;;;-75
2022/10/21 12:43:31;;;;;;;;;;;;;;;17.34;85.85352;100714.8;;;;-75
2022/10/21 12:44:23;;;;;;;13.9;5.1;;;;;;;;;;;;;-75
2022/10/21 12:48:38;;;;;;;;;;;;;;;17.39;85.91992;100714;;;;-75
2022/10/21 12:53:35;;;;;;;;;;;;;;;17.4;85.43848;100709.1;;;;-76
2022/10/21 12:58:34;;;;;;;;;;;;;;;17.47;85.12402;100707.5;;;;-75
2022/10/21 13:03:41;;;;;;;;;;;;;;;17.49;86.62012;100705.8;;;;-75
2022/10/21 13:08:40;;;;;;;;;;;;;;;17.44;85.16309;100708;;;;-75
2022/10/21 13:13:38;;;;;;;;;;;;;;;17.41;85.14746;100709.4;;;;-75
2022/10/21 13:14:33;;;;;;;12.8;5.5;;;;;;;;;;;;;-75
2022/10/21 13:18:42;;;;;;;;;;;;;;;17.45;84.86426;100716.3;;;;-75
2022/10/21 13:23:47;;;;;;;;;;;;;;;17.44;84.83789;100721.8;;;;-76
2022/10/21 13:28:30;;;;;;;;;;;;;;;17.48;85.65527;100718.5;;;;-74
2022/10/21 13:33:31;;;;;;;;;;;;;;;17.59;84.03516;100716.2;;;;-74
2022/10/21 13:38:32;;;;;;;;;;;;;;;17.68;84.67188;100719.5;;;;-75
2022/10/21 13:43:32;;;;;;;;;;;;;;;17.84;83.59961;100714.8;;;;-74
2022/10/21 13:44:28;;;;;;;8.5;3.3;;;;;;;;;;;;;-74
2022/10/21 13:48:31;;;;;;;;;;;;;;;18.02;82.84668;100712.1;;;;-75
2022/10/21 13:53:38;;;;;;;;;;;;;;;18.24;81.875;100718.5;;;;-75
2022/10/21 13:58:34;;;;;;;;;;;;;;;18.38;80.76367;100719.8;;;;-74
2022/10/21 14:03:31;;;;;;;;;;;;;;;18.47;79.57617;100730;;;;-74
2022/10/21 14:08:34;;;;;;;;;;;;;;;18.46;79.4375;100730.5;;;;-76
2022/10/21 14:13:37;;;;;;;;;;;;;;;18.48;79.72266;100727.2;;;;-76
2022/10/21 14:14:21;;;;;;;10.1;2.8;;;;;;;;;;;;;-77
2022/10/21 14:18:34;;;;;;;;;;;;;;;18.44;79.32031;100733;;;;-78
2022/10/21 14:23:34;;;;;;;;;;;;;;;18.44;79.37695;100734.2;;;;-78
2022/10/21 14:28:32;;;;;;;;;;;;;;;18.44;79.12988;100731.8;;;;-78
2022/10/21 14:33:31;;;;;;;;;;;;;;;18.43;79.10449;100732.2;;;;-77
2022/10/21 14:38:40;;;;;;;;;;;;;;;18.41;79.0791;100733.3;;;;-77
2022/10/21 14:43:37;;;;;;;;;;;;;;;18.37;78.67773;100732.7;;;;-80
2022/10/21 14:44:24;;;;;;;4.9;2.1;;;;;;;;;;;;;-77
2022/10/21 14:53:32;;;;;;;;;;;;;;;18.28;77.92969;100731.5;;;;-78
2022/10/21 14:58:32;;;;;;;;;;;;;;;18.22;77.86328;100738.9;;;;-77
2022/10/21 15:03:44;;;;;;;;;;;;;;;18.18;77.74316;100737;;;;-79
2022/10/21 15:08:34;;;;;;;;;;;;;;;18.2;77.79102;100723.9;;;;-78
2022/10/21 15:13:31;;;;;;;;;;;;;;;18.21;78.24316;100728.6;;;;-78
2022/10/21 15:14:30;;;;;;;7.8;1.8;;;;;;;;;;;;;-77
2022/10/21 15:18:35;;;;;;;;;;;;;;;18.12;78.75684;100730;;;;-76
2022/10/21 15:23:34;;;;;;;;;;;;;;;18.18;79.02734;100733.9;;;;-77
2022/10/21 15:28:31;;;;;;;;;;;;;;;18.15;79.32617;100731;;;;-73
2022/10/21 15:33:31;;;;;;;;;;;;;;;18.03;79.32813;100740.7;;;;-76
2022/10/21 15:38:31;;;;;;;;;;;;;;;17.91;79.51953;100737.4;;;;-74
2022/10/21 15:43:31;;;;;;;;;;;;;;;17.8;79.72656;100739.3;;;;-75
2022/10/21 15:44:29;;;;;;;5.4;2;;;;;;;;;;;;;-75
2022/10/21 15:48:31;;;;;;;;;;;;;;;17.69;79.76172;100742.4;;;;-74
2022/10/21 15:53:30;;;;;;;;;;;;;;;17.58;80.06738;100746.1;;;;-75
2022/10/21 15:58:31;;;;;;;;;;;;;;;17.45;80.15723;100750;;;;-75
2022/10/21 16:03:31;;;;;;;;;;;;;;;17.32;81.54883;100752.8;;;;-74
2022/10/21 16:08:32;;;;;;;;;;;;;;;17.18;82.14258;100755.7;;;;-75
2022/10/21 16:13:33;;;;;;;;;;;;;;;17.04;82.75391;100757.6;;;;-75
2022/10/21 16:14:28;;;;;;;5.1;1.8;;;;;;;;;;;;;-75
2022/10/21 16:18:30;;;;;;;;;;;;;;;16.89;82.85156;100764.9;;;;-74
2022/10/21 16:23:31;;;;;;;;;;;;;;;16.76;82.9043;100763.8;;;;-75
2022/10/21 16:28:31;;;;;;;;;;;;;;;16.64;82.88086;100759.9;;;;-75
2022/10/21 16:33:32;;;;;;;;;;;;;;;16.5;82.99023;100756.1;;;;-76
2022/10/21 16:38:31;;;;;;;;;;;;;;;16.36;82.99805;100765.9;;;;-76
2022/10/21 16:43:30;;;;;;;;;;;;;;;16.22;83.07324;100780.1;;;;-76
2022/10/21 16:44:30;;;;;;;3.7;1.6;;;;;;;;;;;;;-76
2022/10/21 16:48:30;;;;;;;;;;;;;;;16.11;83.18555;100779.9;;;;-75
2022/10/21 16:53:31;;;;;;;;;;;;;;;15.98;83.26367;100783.6;;;;-75
2022/10/21 16:58:31;;;;;;;;;;;;;;;15.86;83.28516;100785.1;;;;-76
2022/10/21 17:03:30;;;;;;;;;;;;;;;15.75;83.37598;100777.9;;;;-75
2022/10/21 17:08:31;;;;;;;;;;;;;;;15.63;83.47852;100777.5;;;;-76
2022/10/21 17:13:34;;;;;;;;;;;;;;;15.54;83.64941;100787.9;;;;-75
2022/10/21 17:14:33;;;;;;;3.8;1.9;;;;;;;;;;;;;-75
2022/10/21 17:18:30;;;;;;;;;;;;;;;15.45;83.72168;100787.3;;;;-74
2022/10/21 17:23:31;;;;;;;;;;;;;;;15.35;83.79395;100791.4;;;;-75
2022/10/21 17:28:30;;;;;;;;;;;;;;;15.28;83.90137;100798.5;;;;-75
2022/10/21 17:33:31;;;;;;;;;;;;;;;15.23;83.9043;100805.6;;;;-75
2022/10/21 17:38:32;;;;;;;;;;;;;;;15.17;84.1377;100806.5;;;;-75
2022/10/21 17:43:30;;;;;;;;;;;;;;;15.09;84.30273;100805.8;;;;-75
2022/10/21 17:44:34;;;;;;;5.5;1.9;;;;;;;;;;;;;-75
2022/10/21 17:48:31;;;;;;;;;;;;;;;15.04;84.37012;100811.8;;;;-75
2022/10/21 17:53:31;;;;;;;;;;;;;;;14.97;84.15527;100813.1;;;;-76
2022/10/21 17:58:30;;;;;;;;;;;;;;;14.92;84.58008;100811.8;;;;-74
2022/10/21 18:03:31;;;;;;;;;;;;;;;14.86;84.73926;100804.8;;;;-77
2022/10/21 18:08:30;;;;;;;;;;;;;;;14.81;84.78418;100806;;;;-76
2022/10/21 18:13:33;;;;;;;;;;;;;;;14.75;85.20703;100798.9;;;;-75
2022/10/21 18:14:36;;;;;;;5.3;2.2;;;;;;;;;;;;;-75
2022/10/21 18:18:31;;;;;;;;;;;;;;;14.71;84.96582;100806.5;;;;-75
2022/10/21 18:23:31;;;;;;;;;;;;;;;14.67;85.39258;100804.5;;;;-74
2022/10/21 18:28:31;;;;;;;;;;;;;;;14.63;85.15137;100801.8;;;;-75
2022/10/21 18:33:31;;;;;;;;;;;;;;;14.59;85.55664;100806.2;;;;-74
2022/10/21 18:38:30;;;;;;;;;;;;;;;14.56;86.14063;100811.6;;;;-76
2022/10/21 18:43:30;;;;;;;;;;;;;;;14.54;86.4375;100813.3;;;;-75
2022/10/21 18:44:40;;;;;;;5.5;2.4;;;;;;;;;;;;;-75
2022/10/21 18:48:31;;;;;;;;;;;;;;;14.55;87.32031;100810.7;;;;-74
2022/10/21 18:53:30;;;;;;;;;;;;;;;14.53;86.7373;100813;;;;-74
2022/10/21 18:58:32;;;;;;;;;;;;;;;14.51;85.99805;100810.7;;;;-75
2022/10/21 19:03:30;;;;;;;;;;;;;;;14.49;86.08398;100811.4;;;;-76
2022/10/21 19:08:41;;;;;;;;;;;;;;;14.42;86.40332;100809.7;;;;-75
2022/10/21 19:13:39;;;;;;;;;;;;;;;14.38;86.77344;100823.1;;;;-75
2022/10/21 19:14:39;;;;;;;5.6;2.6;;;;;;;;;;;;;-75
2022/10/21 19:18:30;;;;;;;;;;;;;;;14.35;87.43652;100812.5;;;;-76
2022/10/21 19:23:32;;;;;;;;;;;;;;;14.34;87.07813;100811.4;;;;-75
2022/10/21 19:28:30;;;;;;;;;;;;;;;14.33;87.85645;100811.4;;;;-76
2022/10/21 19:33:31;;;;;;;;;;;;;;;14.3;87.00195;100814.3;;;;-76
2022/10/21 19:38:31;;;;;;;;;;;;;;;14.28;87.06543;100820.5;;;;-75
2022/10/21 19:43:32;;;;;;;;;;;;;;;14.24;87.47266;100826.6;;;;-75
2022/10/21 19:44:41;;;;;;;8;3.1;;;;;;;;;;;;;-75
2022/10/21 19:48:30;;;;;;;;;;;;;;;14.21;87.7207;100826.1;;;;-74
2022/10/21 19:53:31;;;;;;;;;;;;;;;14.18;86.45605;100827.9;;;;-74
2022/10/21 19:58:30;;;;;;;;;;;;;;;14.14;87.25;100835.2;;;;-75
2022/10/21 20:03:31;;;;;;;;;;;;;;;14.1;87.30957;100839.8;;;;-75
2022/10/21 20:08:30;;;;;;;;;;;;;;;14.07;87.02441;100840.8;;;;-75
2022/10/21 20:13:31;;;;;;;;;;;;;;;14.05;86.73145;100841.2;;;;-75
2022/10/21 20:14:45;;;;;;;7.3;2.4;;;;;;;;;;;;;-76
2022/10/21 20:18:30;;;;;;;;;;;;;;;14;87.02148;100848.9;;;;-75
2022/10/21 20:23:30;;;;;;;;;;;;;;;13.97;86.95996;100852.6;;;;-74
2022/10/21 20:28:31;;;;;;;;;;;;;;;13.91;86.55957;100851.8;;;;-75
2022/10/21 20:33:31;;;;;;;;;;;;;;;13.88;86.86426;100858.9;;;;-75
2022/10/21 20:38:30;;;;;;;;;;;;;;;13.83;86.82227;100858.1;;;;-73
2022/10/21 20:43:31;;;;;;;;;;;;;;;13.79;86.44727;100863.1;;;;-74
2022/10/21 20:44:49;;;;;;;4.6;2.4;;;;;;;;;;;;;-77
2022/10/21 20:48:30;;;;;;;;;;;;;;;13.74;86.58301;100864;;;;-76
2022/10/21 20:53:31;;;;;;;;;;;;;;;13.71;86.53027;100862.1;;;;-74
2022/10/21 20:58:31;;;;;;;;;;;;;;;13.66;85.9873;100859;;;;-74
2022/10/21 21:03:34;;;;;;;;;;;;;;;13.61;86.45605;100860.1;;;;-75
2022/10/21 21:08:31;;;;;;;;;;;;;;;13.58;86.83887;100867.6;;;;-75
2022/10/21 21:13:31;;;;;;;;;;;;;;;13.55;86.77734;100873.1;;;;-75
2022/10/21 21:14:45;;;;;;;5.8;2.1;;;;;;;;;;;;;-74
2022/10/21 21:18:30;;;;;;;;;;;;;;;13.5;86.76855;100877.5;;;;-75
2022/10/21 21:23:30;;;;;;;;;;;;;;;13.46;87.09473;100877.4;;;;-75
2022/10/21 21:28:30;;;;;;;;;;;;;;;13.44;87.20117;100881.1;;;;-75
2022/10/21 21:33:31;;;;;;;;;;;;;;;13.41;87.00488;100880.7;;;;-75
2022/10/21 21:38:31;;;;;;;;;;;;;;;13.38;86.84375;100884.2;;;;-77
2022/10/21 21:43:34;;;;;;;;;;;;;;;13.33;86.24707;100883;;;;-75
2022/10/21 21:44:47;;;;;;;6.9;2.4;;;;;;;;;;;;;-76
2022/10/21 21:48:31;;;;;;;;;;;;;;;13.29;87.3291;100880.4;;;;-76
2022/10/21 21:53:30;;;;;;;;;;;;;;;13.27;87.05762;100889;;;;-74
2022/10/21 21:58:30;;;;;;;;;;;;;;;13.23;86.49316;100890;;;;-74
2022/10/21 22:03:30;;;;;;;;;;;;;;;13.18;87.30371;100889.4;;;;-75
2022/10/21 22:08:32;;;;;;;;;;;;;;;13.13;86.73828;100889.4;;;;-76
2022/10/21 22:13:33;;;;;;;;;;;;;;;13.1;86.71191;100889.1;;;;-74
2022/10/21 22:14:54;;;;;;;4.9;2.2;;;;;;;;;;;;;-77
2022/10/21 22:18:30;;;;;;;;;;;;;;;13.07;87.13965;100890.8;;;;-75
2022/10/21 22:23:31;;;;;;;;;;;;;;;13.01;85.92773;100899.1;;;;-74
2022/10/21 22:28:35;;;;;;;;;;;;;;;13;86.29199;100893.5;;;;-75
2022/10/21 22:33:31;;;;;;;;;;;;;;;12.93;85.80078;100900.5;;;;-74
2022/10/21 22:38:31;;;;;;;;;;;;;;;12.92;86.03223;100900.6;;;;-75
2022/10/21 22:43:31;;;;;;;;;;;;;;;12.87;86.01172;100901.5;;;;-75
2022/10/21 22:44:52;;;;;;;4.1;2.2;;;;;;;;;;;;;-76
2022/10/21 22:48:30;;;;;;;;;;;;;;;12.85;85.81836;100903.5;;;;-75
2022/10/21 22:53:31;;;;;;;;;;;;;;;12.81;85.75586;100905.3;;;;-75
2022/10/21 22:58:31;;;;;;;;;;;;;;;12.76;85.84668;100899.3;;;;-75
2022/10/21 23:03:30;;;;;;;;;;;;;;;12.76;87.02148;100896.4;;;;-76
2022/10/21 23:08:33;;;;;;;;;;;;;;;12.74;86.11914;100889.2;;;;-75
2022/10/21 23:13:30;;;;;;;;;;;;;;;12.74;86.19629;100888.9;;;;-75
2022/10/21 23:14:51;;;;;;;5.3;2.3;;;;;;;;;;;;;-75
2022/10/21 23:18:31;;;;;;;;;;;;;;;12.74;86.04102;100891.8;;;;-75
2022/10/21 23:23:33;;;;;;;;;;;;;;;12.74;85.64258;100883.5;;;;-75
2022/10/21 23:28:30;;;;;;;;;;;;;;;12.72;85.71777;100879.3;;;;-75
2022/10/21 23:33:30;;;;;;;;;;;;;;;12.73;86.88281;100873.8;;;;-75
2022/10/21 23:38:30;;;;;;;;;;;;;;;12.69;86.54297;100882.4;;;;-75
2022/10/21 23:43:30;;;;;;;;;;;;;;;12.68;86.61719;100880.6;;;;-75
2022/10/21 23:44:52;;;;;;;4.1;2.1;;;;;;;;;;;;;-76
2022/10/21 23:48:31;;;;;;;;;;;;;;;12.66;86.3916;100882.7;;;;-75
2022/10/21 23:53:30;;;;;;;;;;;;;;;12.63;86.19727;100885.1;;;;-74
2022/10/21 23:58:30;;;;;;;;;;;;;;;12.59;86.15723;100882.5;;;;-75
